createdAt,value
2023-05-10T00:01:26.953Z,14.26
2023-05-10T00:03:53.579Z,14.25
2023-05-10T00:06:20.287Z,14.26
2023-05-10T00:08:46.821Z,14.27
2023-05-10T00:11:13.343Z,14.26
2023-05-10T00:13:39.912Z,14.27
2023-05-10T00:16:06.579Z,14.28
2023-05-10T00:18:33.120Z,14.28
2023-05-10T00:20:59.727Z,14.29
2023-05-10T00:23:26.253Z,14.30
2023-05-10T00:25:52.775Z,14.34
2023-05-10T00:28:19.363Z,14.37
2023-05-10T00:30:45.949Z,14.40
2023-05-10T00:33:12.585Z,14.39
2023-05-10T00:35:39.280Z,14.36
2023-05-10T00:38:05.812Z,14.34
2023-05-10T00:40:32.392Z,14.34
2023-05-10T00:43:00.492Z,14.32
2023-05-10T00:45:27.145Z,14.32
2023-05-10T00:47:56.186Z,14.34
2023-05-10T00:50:24.410Z,14.34
2023-05-10T00:52:51.372Z,14.36
2023-05-10T00:55:18.916Z,14.36
2023-05-10T00:57:45.559Z,14.37
2023-05-10T01:00:13.873Z,14.38
2023-05-10T01:02:41.624Z,14.40
2023-05-10T01:05:08.419Z,14.36
2023-05-10T01:07:34.999Z,14.32
2023-05-10T01:10:01.633Z,14.34
2023-05-10T01:12:28.345Z,14.36
2023-05-10T01:14:55.900Z,14.37
2023-05-10T01:17:23.531Z,14.41
2023-05-10T01:19:50.780Z,14.43
2023-05-10T01:22:58.606Z,14.40
2023-05-10T01:25:53.260Z,14.37
2023-05-10T01:28:44.652Z,14.36
2023-05-10T01:31:32.655Z,14.34
2023-05-10T01:34:13.121Z,14.34
2023-05-10T01:36:49.322Z,14.35
2023-05-10T01:39:22.182Z,14.32
2023-05-10T01:42:04.529Z,14.29
2023-05-10T01:44:38.716Z,14.32
2023-05-10T01:47:18.381Z,14.26
2023-05-10T01:49:51.635Z,14.25
2023-05-10T01:52:21.205Z,14.23
2023-05-10T01:54:56.689Z,14.18
2023-05-10T01:57:26.971Z,14.14
2023-05-10T01:59:54.628Z,14.10
2023-05-10T02:02:23.270Z,14.06
2023-05-10T02:04:51.705Z,14.04
2023-05-10T02:07:19.084Z,14.03
2023-05-10T02:09:49.702Z,13.99
2023-05-10T02:12:17.183Z,13.95
2023-05-10T02:14:45.137Z,13.89
2023-05-10T02:17:12.869Z,13.88
2023-05-10T02:19:41.924Z,13.83
2023-05-10T02:22:09.984Z,13.76
2023-05-10T02:24:38.126Z,13.76
2023-05-10T02:27:05.311Z,13.73
2023-05-10T02:29:33.404Z,13.69
2023-05-10T02:32:01.018Z,13.68
2023-05-10T02:34:28.739Z,13.64
2023-05-10T02:36:57.108Z,13.60
2023-05-10T02:39:24.838Z,13.57
2023-05-10T02:41:53.323Z,13.54
2023-05-10T02:44:21.092Z,13.50
2023-05-10T02:46:48.079Z,13.47
2023-05-10T02:49:15.228Z,13.43
2023-05-10T02:52:00.994Z,13.38
2023-05-10T02:54:32.848Z,13.37
2023-05-10T02:57:03.941Z,13.36
2023-05-10T02:59:30.549Z,13.33
2023-05-10T03:01:57.274Z,13.30
2023-05-10T03:04:23.827Z,13.26
2023-05-10T03:06:51.236Z,13.23
2023-05-10T03:09:17.876Z,13.18
2023-05-10T03:12:14.783Z,13.12
2023-05-10T03:15:01.666Z,13.04
2023-05-10T03:17:41.059Z,13.01
2023-05-10T03:20:11.344Z,12.94
2023-05-10T03:22:44.347Z,12.93
2023-05-10T03:25:12.571Z,12.91
2023-05-10T03:27:42.763Z,12.84
2023-05-10T03:30:12.783Z,12.84
2023-05-10T03:32:40.153Z,12.84
2023-05-10T03:35:11.280Z,12.81
2023-05-10T03:37:38.014Z,12.78
2023-05-10T03:40:05.444Z,12.78
2023-05-10T03:42:32.150Z,12.76
2023-05-10T03:44:58.735Z,12.76
2023-05-10T03:47:25.293Z,12.79
2023-05-10T03:49:51.857Z,12.81
2023-05-10T03:52:19.169Z,12.82
2023-05-10T03:54:45.697Z,12.84
2023-05-10T03:57:12.244Z,12.87
2023-05-10T03:59:38.841Z,12.92
2023-05-10T04:02:05.461Z,12.92
2023-05-10T04:04:31.972Z,12.91
2023-05-10T04:06:58.722Z,12.92
2023-05-10T04:09:25.294Z,12.92
2023-05-10T04:11:52.172Z,12.93
2023-05-10T04:14:18.800Z,12.94
2023-05-10T04:16:45.902Z,12.97
2023-05-10T04:19:12.652Z,13.01
2023-05-10T04:21:39.223Z,13.01
2023-05-10T04:24:06.062Z,13.01
2023-05-10T04:26:32.593Z,13.03
2023-05-10T04:28:59.116Z,13.02
2023-05-10T04:31:25.833Z,13.09
2023-05-10T04:33:52.489Z,13.09
2023-05-10T04:36:19.262Z,13.10
2023-05-10T04:38:45.824Z,13.09
2023-05-10T04:41:12.512Z,13.10
2023-05-10T04:43:39.497Z,13.14
2023-05-10T04:46:07.135Z,13.12
2023-05-10T04:48:33.855Z,13.09
2023-05-10T04:51:00.694Z,13.16
2023-05-10T04:53:27.363Z,13.44
2023-05-10T04:55:53.942Z,13.70
2023-05-10T04:58:20.466Z,13.70
2023-05-10T05:00:47.010Z,13.79
2023-05-10T05:03:13.703Z,13.86
2023-05-10T05:05:40.302Z,13.82
2023-05-10T05:08:07.115Z,13.87
2023-05-10T05:10:33.692Z,13.97
2023-05-10T05:13:00.417Z,13.95
2023-05-10T05:15:27.081Z,13.90
2023-05-10T05:17:53.691Z,13.92
2023-05-10T05:20:20.419Z,13.86
2023-05-10T05:22:46.948Z,13.84
2023-05-10T05:25:13.709Z,13.91
2023-05-10T05:27:40.384Z,13.92
2023-05-10T05:30:08.644Z,13.90
2023-05-10T05:32:35.426Z,13.89
2023-05-10T05:35:02.022Z,13.95
2023-05-10T05:37:28.566Z,13.89
2023-05-10T05:39:56.042Z,13.91
2023-05-10T05:42:22.701Z,14.01
2023-05-10T05:44:49.299Z,13.96
2023-05-10T05:47:15.940Z,14.00
2023-05-10T05:49:42.584Z,14.13
2023-05-10T05:52:09.251Z,14.35
2023-05-10T05:54:35.989Z,14.54
2023-05-10T05:57:02.536Z,14.65
2023-05-10T05:59:29.455Z,14.70
2023-05-10T06:01:56.056Z,14.82
2023-05-10T06:04:22.822Z,14.85
2023-05-10T06:06:49.620Z,14.90
2023-05-10T06:09:16.882Z,14.87
2023-05-10T06:11:43.946Z,14.83
2023-05-10T06:14:10.749Z,14.75
2023-05-10T06:16:37.399Z,14.69
2023-05-10T06:19:04.284Z,14.65
2023-05-10T06:21:31.282Z,14.81
2023-05-10T06:23:57.990Z,15.01
2023-05-10T06:26:24.554Z,15.15
2023-05-10T06:28:51.104Z,15.16
2023-05-10T06:31:17.834Z,15.14
2023-05-10T06:33:44.429Z,15.07
2023-05-10T06:36:10.965Z,14.95
2023-05-10T06:38:37.843Z,14.91
2023-05-10T06:41:04.396Z,14.94
2023-05-10T06:43:31.154Z,14.93
2023-05-10T06:45:57.788Z,15.01
2023-05-10T06:48:24.665Z,15.09
2023-05-10T06:50:51.208Z,15.09
2023-05-10T06:53:27.311Z,14.97
2023-05-10T06:55:53.865Z,14.91
2023-05-10T06:58:20.367Z,14.83
2023-05-10T07:00:48.016Z,14.67
2023-05-10T07:03:14.723Z,14.53
2023-05-10T07:05:41.329Z,14.41
2023-05-10T07:08:08.526Z,14.34
2023-05-10T07:10:35.086Z,14.30
2023-05-10T07:13:02.464Z,14.29
2023-05-10T07:15:29.519Z,14.29
2023-05-10T07:17:56.677Z,14.42
2023-05-10T07:20:23.319Z,14.56
2023-05-10T07:22:49.998Z,14.75
2023-05-10T07:25:16.921Z,14.90
2023-05-10T07:27:43.593Z,15.00
2023-05-10T07:30:10.565Z,14.95
2023-05-10T07:32:37.509Z,14.90
2023-05-10T07:35:04.432Z,14.89
2023-05-10T07:37:31.088Z,14.90
2023-05-10T07:39:57.641Z,14.88
2023-05-10T07:42:24.580Z,14.88
2023-05-10T07:44:51.169Z,14.85
2023-05-10T07:47:17.703Z,14.75
2023-05-10T07:49:44.558Z,14.66
2023-05-10T07:52:11.183Z,14.55
2023-05-10T07:54:38.479Z,14.40
2023-05-10T07:57:04.978Z,14.24
2023-05-10T07:59:31.553Z,14.08
2023-05-10T08:01:58.072Z,13.98
2023-05-10T08:04:25.100Z,13.94
2023-05-10T08:06:51.699Z,13.98
2023-05-10T08:09:18.828Z,14.07
2023-05-10T08:11:45.443Z,14.13
2023-05-10T08:14:12.104Z,14.27
2023-05-10T08:16:38.620Z,14.29
2023-05-10T08:19:05.922Z,14.39
2023-05-10T08:21:32.914Z,14.47
2023-05-10T08:23:59.447Z,14.67
2023-05-10T08:26:26.941Z,14.89
2023-05-10T08:28:53.527Z,15.06
2023-05-10T08:31:20.298Z,15.09
2023-05-10T08:33:46.971Z,15.17
2023-05-10T08:36:15.241Z,15.23
2023-05-10T08:38:41.836Z,15.33
2023-05-10T08:41:08.651Z,15.27
2023-05-10T08:43:37.300Z,15.33
2023-05-10T08:46:06.261Z,15.44
2023-05-10T08:48:35.387Z,15.45
2023-05-10T08:51:03.797Z,15.45
2023-05-10T08:53:34.052Z,15.41
2023-05-10T08:56:02.291Z,15.27
2023-05-10T08:58:29.290Z,15.11
2023-05-10T09:00:56.970Z,15.00
2023-05-10T09:03:23.666Z,14.94
2023-05-10T09:05:50.536Z,14.85
2023-05-10T09:08:19.873Z,14.64
2023-05-10T09:10:48.593Z,14.50
2023-05-10T09:13:16.560Z,14.41
2023-05-10T09:15:45.643Z,14.38
2023-05-10T09:18:12.748Z,14.39
2023-05-10T09:20:39.404Z,14.50
2023-05-10T09:23:06.769Z,14.58
2023-05-10T09:25:36.613Z,14.70
2023-05-10T09:28:03.395Z,14.91
2023-05-10T09:30:31.714Z,15.11
2023-05-10T09:32:59.980Z,15.21
2023-05-10T09:35:29.873Z,15.24
2023-05-10T09:37:59.042Z,15.17
2023-05-10T09:40:27.078Z,15.22
2023-05-10T09:43:07.893Z,15.23
2023-05-10T09:45:38.284Z,15.23
2023-05-10T09:48:06.105Z,15.14
2023-05-10T09:50:32.820Z,15.09
2023-05-10T09:53:01.330Z,14.99
2023-05-10T09:55:50.258Z,14.79
2023-05-10T09:58:17.132Z,14.79
2023-05-10T10:00:45.759Z,14.83
2023-05-10T10:03:20.032Z,14.84
2023-05-10T10:05:48.865Z,14.89
2023-05-10T10:08:17.574Z,14.97
2023-05-10T10:10:47.596Z,15.13
2023-05-10T10:13:15.039Z,15.23
2023-05-10T10:15:44.213Z,15.24
2023-05-10T10:18:14.657Z,15.40
2023-05-10T10:20:41.748Z,15.55
2023-05-10T10:23:09.365Z,15.61
2023-05-10T10:25:36.621Z,15.69
2023-05-10T10:28:27.542Z,15.74
2023-05-10T10:30:57.481Z,15.69
2023-05-10T10:33:48.798Z,15.67
2023-05-10T10:36:16.557Z,15.83
2023-05-10T10:38:49.083Z,15.95
2023-05-10T10:41:36.120Z,16.06
2023-05-10T10:44:39.337Z,16.06
2023-05-10T10:47:26.170Z,16.14
2023-05-10T10:50:04.698Z,16.25
2023-05-10T10:52:44.445Z,16.22
2023-05-10T10:55:19.944Z,16.22
2023-05-10T10:58:01.659Z,16.09
2023-05-10T11:00:37.889Z,16.00
2023-05-10T11:03:15.747Z,15.99
2023-05-10T11:05:46.556Z,15.95
2023-05-10T11:08:30.754Z,16.01
2023-05-10T11:11:00.335Z,16.24
2023-05-10T11:13:34.212Z,16.50
2023-05-10T11:16:12.589Z,16.76
2023-05-10T11:18:39.278Z,17.01
2023-05-10T11:21:10.381Z,17.17
2023-05-10T11:23:48.933Z,17.30
2023-05-10T11:26:15.878Z,17.39
2023-05-10T11:28:45.086Z,17.39
2023-05-10T11:31:13.566Z,17.52
2023-05-10T11:33:51.702Z,17.60
2023-05-10T11:36:26.917Z,17.57
2023-05-10T11:38:53.953Z,17.48
2023-05-10T11:41:24.536Z,17.58
2023-05-10T11:43:52.631Z,17.74
2023-05-10T11:46:22.437Z,17.95
2023-05-10T11:48:54.038Z,18.03
2023-05-10T11:51:22.768Z,17.90
2023-05-10T11:53:54.442Z,17.77
2023-05-10T11:56:22.756Z,17.68
2023-05-10T11:58:57.061Z,17.59
2023-05-10T12:01:25.438Z,17.48
2023-05-10T12:03:53.573Z,17.45
2023-05-10T12:06:21.416Z,17.51
2023-05-10T12:08:53.634Z,17.72
2023-05-10T12:11:22.867Z,17.80
2023-05-10T12:13:50.834Z,17.70
2023-05-10T12:16:22.762Z,17.59
2023-05-10T12:18:52.073Z,17.55
2023-05-10T12:21:20.824Z,17.66
2023-05-10T12:23:49.810Z,17.87
2023-05-10T12:26:16.505Z,17.99
2023-05-10T12:28:43.111Z,17.88
2023-05-10T12:31:10.104Z,17.83
2023-05-10T12:33:42.461Z,17.89
2023-05-10T12:36:10.756Z,17.98
2023-05-10T12:38:45.402Z,17.98
2023-05-10T12:41:14.063Z,17.93
2023-05-10T12:43:41.238Z,17.83
2023-05-10T12:46:08.080Z,17.73
2023-05-10T12:48:35.629Z,17.63
2023-05-10T12:51:03.136Z,17.56
2023-05-10T12:53:29.645Z,17.55
2023-05-10T12:55:56.318Z,17.56
2023-05-10T12:58:34.964Z,17.53
2023-05-10T13:01:02.547Z,17.48
2023-05-10T13:03:29.120Z,17.56
2023-05-10T13:05:55.814Z,17.52
2023-05-10T13:08:22.377Z,17.39
2023-05-10T13:10:49.317Z,17.30
2023-05-10T13:13:16.585Z,17.29
2023-05-10T13:15:43.077Z,17.30
2023-05-10T13:18:09.664Z,17.34
2023-05-10T13:20:36.243Z,17.43
2023-05-10T13:23:03.606Z,17.60
2023-05-10T13:25:30.357Z,17.76
2023-05-10T13:27:56.829Z,17.98
2023-05-10T13:30:24.763Z,18.40
2023-05-10T13:32:51.537Z,18.87
2023-05-10T13:35:18.254Z,19.36
2023-05-10T13:37:44.923Z,19.76
2023-05-10T13:40:11.667Z,19.80
2023-05-10T13:42:38.479Z,19.57
2023-05-10T13:45:05.611Z,19.44
2023-05-10T13:47:32.267Z,19.47
2023-05-10T13:49:59.337Z,19.17
2023-05-10T13:52:26.138Z,19.17
2023-05-10T13:54:53.286Z,19.23
2023-05-10T13:57:19.745Z,19.52
2023-05-10T13:59:46.308Z,19.89
2023-05-10T14:02:14.179Z,20.05
2023-05-10T14:04:40.758Z,20.48
2023-05-10T14:07:07.275Z,21.16
2023-05-10T14:09:33.842Z,21.70
2023-05-10T14:12:00.403Z,21.90
2023-05-10T14:14:26.999Z,22.21
2023-05-10T14:16:53.464Z,22.52
2023-05-10T14:19:20.070Z,22.70
2023-05-10T14:21:46.635Z,23.00
2023-05-10T14:24:13.155Z,22.77
2023-05-10T14:26:39.730Z,22.20
2023-05-10T14:29:06.184Z,21.69
2023-05-10T14:31:32.898Z,20.93
2023-05-10T14:34:00.179Z,20.26
2023-05-10T14:36:26.842Z,19.80
2023-05-10T14:38:53.414Z,19.70
2023-05-10T14:41:19.900Z,20.21
2023-05-10T14:43:46.878Z,20.91
2023-05-10T14:46:13.554Z,21.80
2023-05-10T14:48:40.224Z,22.29
2023-05-10T14:51:07.460Z,23.24
2023-05-10T14:53:34.089Z,24.11
2023-05-10T14:56:02.231Z,24.80
2023-05-10T14:58:28.927Z,24.63
2023-05-10T15:00:55.453Z,23.91
2023-05-10T15:03:22.376Z,23.06
2023-05-10T15:05:49.339Z,22.44
2023-05-10T15:08:15.726Z,21.88
2023-05-10T15:10:42.572Z,21.45
2023-05-10T15:13:09.059Z,21.12
2023-05-10T15:15:35.599Z,21.27
2023-05-10T15:18:02.176Z,21.92
2023-05-10T15:20:28.884Z,23.00
2023-05-10T15:22:55.414Z,23.24
2023-05-10T15:25:22.181Z,23.71
2023-05-10T15:27:48.724Z,24.03
2023-05-10T15:30:15.417Z,24.67
2023-05-10T15:32:41.953Z,25.10
2023-05-10T15:35:10.553Z,24.51
2023-05-10T15:37:37.820Z,23.66
2023-05-10T15:40:05.134Z,22.62
2023-05-10T15:42:32.581Z,21.72
2023-05-10T15:44:59.647Z,21.13
2023-05-10T15:47:27.016Z,20.62
2023-05-10T15:49:53.604Z,20.17
2023-05-10T15:52:21.647Z,19.87
2023-05-10T15:54:48.261Z,19.47
2023-05-10T15:57:14.870Z,19.14
2023-05-10T15:59:41.697Z,18.86
2023-05-10T16:02:10.854Z,18.57
2023-05-10T16:04:37.840Z,18.29
2023-05-10T16:07:04.565Z,18.11
2023-05-10T16:09:31.082Z,17.92
2023-05-10T16:11:57.594Z,17.66
2023-05-10T16:14:24.752Z,17.57
2023-05-10T16:16:51.735Z,17.57
2023-05-10T16:19:18.500Z,17.60
2023-05-10T16:21:45.292Z,17.76
2023-05-10T16:24:11.855Z,17.93
2023-05-10T16:26:40.968Z,18.06
2023-05-10T16:29:10.919Z,17.78
2023-05-10T16:31:37.529Z,17.53
2023-05-10T16:34:04.221Z,17.42
2023-05-10T16:36:31.537Z,17.27
2023-05-10T16:38:58.432Z,17.19
2023-05-10T16:41:25.894Z,17.03
2023-05-10T16:43:52.567Z,17.06
2023-05-10T16:46:19.134Z,17.11
2023-05-10T16:48:46.010Z,17.29
2023-05-10T16:51:12.590Z,17.98
2023-05-10T16:53:39.231Z,18.59
2023-05-10T16:56:05.956Z,19.99
2023-05-10T16:58:32.457Z,21.19
2023-05-10T17:00:58.984Z,21.95
2023-05-10T17:03:26.021Z,22.65
2023-05-10T17:05:52.656Z,22.89
2023-05-10T17:08:19.271Z,22.88
2023-05-10T17:10:46.134Z,22.51
2023-05-10T17:13:12.694Z,22.28
2023-05-10T17:15:39.689Z,21.67
2023-05-10T17:18:07.533Z,21.17
2023-05-10T17:20:34.487Z,20.72
2023-05-10T17:23:02.699Z,20.20
2023-05-10T17:25:29.620Z,19.84
2023-05-10T17:27:56.155Z,19.26
2023-05-10T17:30:26.375Z,18.86
2023-05-10T17:32:54.369Z,18.46
2023-05-10T17:35:21.566Z,18.11
2023-05-10T17:37:48.217Z,17.86
2023-05-10T17:40:15.042Z,17.55
2023-05-10T17:42:41.965Z,17.29
2023-05-10T17:45:09.154Z,17.13
2023-05-10T17:47:35.789Z,16.93
2023-05-10T17:50:02.403Z,16.71
2023-05-10T17:52:31.367Z,16.47
2023-05-10T17:54:59.843Z,16.25
2023-05-10T17:57:26.442Z,16.00
2023-05-10T17:59:53.013Z,15.87
2023-05-10T18:02:19.616Z,15.71
2023-05-10T18:04:46.423Z,15.60
2023-05-10T18:07:13.083Z,15.51
2023-05-10T18:09:39.585Z,15.45
2023-05-10T18:12:06.737Z,15.35
2023-05-10T18:14:40.530Z,15.26
2023-05-10T18:17:09.127Z,15.18
2023-05-10T18:19:35.817Z,15.08
2023-05-10T18:22:02.771Z,15.01
2023-05-10T18:24:37.515Z,14.97
2023-05-10T18:27:05.887Z,14.88
2023-05-10T18:29:32.823Z,14.80
2023-05-10T18:31:59.390Z,14.74
2023-05-10T18:34:25.969Z,14.66
2023-05-10T18:36:52.792Z,14.60
2023-05-10T18:39:19.488Z,14.58
2023-05-10T18:41:46.101Z,14.49
2023-05-10T18:44:12.646Z,14.39
2023-05-10T18:46:39.511Z,14.28
2023-05-10T18:49:08.363Z,14.20
2023-05-10T18:51:35.057Z,14.11
2023-05-10T18:54:01.579Z,14.02
2023-05-10T18:56:28.254Z,13.95
2023-05-10T18:58:54.921Z,13.84
2023-05-10T19:01:21.657Z,13.73
2023-05-10T19:03:48.292Z,13.68
2023-05-10T19:06:14.877Z,13.62
2023-05-10T19:08:41.401Z,13.57
2023-05-10T19:11:07.975Z,13.49
2023-05-10T19:13:34.567Z,13.45
2023-05-10T19:16:10.581Z,13.38
2023-05-10T19:18:38.462Z,13.29
2023-05-10T19:21:09.653Z,13.20
2023-05-10T19:23:40.400Z,13.13
2023-05-10T19:26:09.332Z,13.08
2023-05-10T19:28:36.603Z,13.02
2023-05-10T19:31:03.503Z,12.97
2023-05-10T19:33:30.174Z,12.93
2023-05-10T19:35:56.720Z,12.88
2023-05-10T19:38:24.359Z,12.84
2023-05-10T19:40:57.504Z,12.76
2023-05-10T19:43:29.171Z,12.70
2023-05-10T19:45:59.277Z,12.59
2023-05-10T19:48:26.538Z,12.60
2023-05-10T19:50:53.783Z,12.55
2023-05-10T19:53:20.324Z,12.50
2023-05-10T19:55:46.990Z,12.48
2023-05-10T19:58:13.501Z,12.47
2023-05-10T20:00:40.065Z,12.46
2023-05-10T20:03:09.165Z,12.46
2023-05-10T20:05:36.126Z,12.44
2023-05-10T20:08:02.719Z,12.43
2023-05-10T20:10:29.381Z,12.42
2023-05-10T20:12:55.978Z,12.41
2023-05-10T20:15:23.474Z,12.39
2023-05-10T20:17:52.206Z,12.36
2023-05-10T20:20:20.159Z,12.30
2023-05-10T20:22:47.959Z,12.25
2023-05-10T20:25:15.236Z,12.23
2023-05-10T20:27:41.931Z,12.23
2023-05-10T20:30:10.452Z,12.23
2023-05-10T20:32:38.042Z,12.22
2023-05-10T20:35:05.698Z,12.21
2023-05-10T20:37:32.500Z,12.25
2023-05-10T20:39:59.018Z,12.24
2023-05-10T20:42:25.613Z,12.23
2023-05-10T20:44:52.237Z,12.22
2023-05-10T20:47:19.005Z,12.19
2023-05-10T20:49:45.898Z,12.18
2023-05-10T20:52:12.572Z,12.17
2023-05-10T20:54:39.112Z,12.17
2023-05-10T20:57:05.776Z,12.18
2023-05-10T20:59:32.396Z,12.19
2023-05-10T21:01:59.269Z,12.18
2023-05-10T21:04:26.036Z,12.12
2023-05-10T21:06:53.321Z,12.11
2023-05-10T21:09:19.989Z,12.09
2023-05-10T21:11:46.633Z,12.10
2023-05-10T21:14:13.261Z,12.06
2023-05-10T21:16:39.987Z,12.04
2023-05-10T21:19:07.619Z,11.96
2023-05-10T21:21:34.463Z,11.88
2023-05-10T21:24:01.213Z,11.82
2023-05-10T21:26:27.807Z,11.77
2023-05-10T21:28:54.449Z,11.73
2023-05-10T21:31:21.434Z,11.71
2023-05-10T21:33:48.057Z,11.66
2023-05-10T21:36:15.012Z,11.63
2023-05-10T21:38:44.246Z,11.60
2023-05-10T21:41:11.090Z,11.56
2023-05-10T21:43:37.721Z,11.56
2023-05-10T21:46:04.784Z,11.54
2023-05-10T21:48:31.454Z,11.59
2023-05-10T21:50:58.758Z,11.62
2023-05-10T21:53:25.368Z,11.65
2023-05-10T21:55:51.912Z,11.70
2023-05-10T21:58:18.613Z,11.69
2023-05-10T22:00:45.140Z,11.70
2023-05-10T22:03:11.829Z,11.69
2023-05-10T22:05:39.010Z,11.69
2023-05-10T22:08:06.572Z,11.70
2023-05-10T22:10:33.401Z,11.66
2023-05-10T22:13:00.321Z,11.65
2023-05-10T22:15:27.435Z,11.63
2023-05-10T22:17:54.022Z,11.63
2023-05-10T22:20:21.179Z,11.61
2023-05-10T22:22:47.951Z,11.58
2023-05-10T22:25:14.751Z,11.56
2023-05-10T22:27:41.455Z,11.54
2023-05-10T22:30:08.717Z,11.55
2023-05-10T22:32:35.241Z,11.57
2023-05-10T22:35:02.420Z,11.55
2023-05-10T22:37:28.971Z,11.55
2023-05-10T22:39:55.525Z,11.52
2023-05-10T22:42:22.131Z,11.51
2023-05-10T22:44:48.647Z,11.52
2023-05-10T22:47:16.382Z,11.51
2023-05-10T22:49:42.930Z,11.52
2023-05-10T22:52:09.783Z,11.52
2023-05-10T22:54:36.553Z,11.51
2023-05-10T22:57:03.342Z,11.47
2023-05-10T22:59:29.982Z,11.47
2023-05-10T23:01:56.578Z,11.49
2023-05-10T23:04:23.198Z,11.50
2023-05-10T23:06:49.825Z,11.52
2023-05-10T23:09:16.497Z,11.52
2023-05-10T23:11:43.253Z,11.51
2023-05-10T23:14:09.731Z,11.53
2023-05-10T23:16:36.700Z,11.56
2023-05-10T23:19:03.386Z,11.57
2023-05-10T23:21:31.972Z,11.59
2023-05-10T23:23:58.985Z,11.60
2023-05-10T23:26:25.634Z,11.63
2023-05-10T23:28:52.372Z,11.67
2023-05-10T23:31:19.012Z,11.69
2023-05-10T23:33:45.664Z,11.73
2023-05-10T23:36:12.472Z,11.78
2023-05-10T23:38:39.452Z,11.83
2023-05-10T23:41:06.219Z,11.90
2023-05-10T23:43:32.788Z,11.94
2023-05-10T23:45:59.556Z,12.02
2023-05-10T23:48:26.283Z,12.12
2023-05-10T23:50:53.349Z,12.23
2023-05-10T23:53:19.997Z,12.30
2023-05-10T23:55:46.828Z,12.36
2023-05-10T23:58:13.483Z,12.41
